Hallsville, Ohio
Current Conditions -  °F | °C
As of 4:55 AM on Friday 28 Nov 2014 (Local Time) from KRZT Reporting Station
Overcast Overcast  
Wind Chill: 20°   Ceiling: 3800
Heat Index: 27°   Visibility: 10mi
Dew Point: 19°   Wind: 6mph
Humidity: 74%   Direction: 310°NW
Pressure: 30.38"   Gusts: NA
Location:  39.44°N, 82.83°W
Report Text: KRZT 280955Z AUTO 31005KT 10SM OVC038 M03/M07 A3038 RMK AO2
Loading
Personal Weather Stations






























Interactive Weather Map New forecast layout! Learn more

10-Day Weather Forecast

Advertisements
Track Severe Weather on mobile